createdAt,value
2018-12-20T00:03:04.317Z,5.4
2018-12-20T00:08:04.577Z,5.3
2018-12-20T00:12:27.860Z,5.3
2018-12-20T00:17:27.463Z,5.2
2018-12-20T00:22:27.369Z,5.1
2018-12-20T00:27:28.059Z,5.1
2018-12-20T00:32:27.328Z,5.0
2018-12-20T00:37:27.878Z,5.0
2018-12-20T00:42:27.950Z,5.0
2018-12-20T00:47:27.939Z,5.0
2018-12-20T00:52:28.054Z,5.1
2018-12-20T00:57:29.727Z,5.2
2018-12-20T01:02:28.402Z,5.1
2018-12-20T01:07:28.096Z,5.1
2018-12-20T01:12:27.459Z,5.0
2018-12-20T01:17:28.032Z,5.0
2018-12-20T01:22:27.932Z,5.0
2018-12-20T01:27:27.356Z,4.9
2018-12-20T01:32:28.774Z,4.8
2018-12-20T01:37:28.126Z,4.8
2018-12-20T01:42:28.171Z,4.8
2018-12-20T01:47:28.331Z,4.7
2018-12-20T01:52:28.135Z,4.8
2018-12-20T01:57:27.776Z,4.7
2018-12-20T02:02:28.819Z,4.8
2018-12-20T02:07:27.815Z,4.8
2018-12-20T02:12:28.275Z,4.8
2018-12-20T02:17:28.686Z,4.7
2018-12-20T02:22:28.201Z,4.6
2018-12-20T02:27:27.398Z,4.6
2018-12-20T02:32:27.706Z,4.5
2018-12-20T02:37:27.383Z,4.5
2018-12-20T02:42:27.779Z,4.8
2018-12-20T02:47:27.796Z,4.9
2018-12-20T02:52:27.813Z,4.9
2018-12-20T02:57:27.892Z,5.0
2018-12-20T03:02:27.699Z,5.1
2018-12-20T03:07:27.424Z,5.1
2018-12-20T03:12:27.632Z,5.3
2018-12-20T03:17:28.147Z,5.2
2018-12-20T03:22:28.803Z,5.3
2018-12-20T03:27:27.674Z,5.4
2018-12-20T03:32:27.903Z,5.5
2018-12-20T03:37:28.012Z,5.6
2018-12-20T03:42:28.272Z,5.7
2018-12-20T03:47:27.379Z,5.7
2018-12-20T03:52:28.283Z,5.8
2018-12-20T03:57:27.737Z,5.8
2018-12-20T04:02:27.814Z,5.8
2018-12-20T04:07:27.932Z,5.7
2018-12-20T04:12:27.930Z,5.7
2018-12-20T04:17:28.376Z,5.7
2018-12-20T04:22:28.721Z,5.8
2018-12-20T04:27:27.704Z,5.8
2018-12-20T04:32:27.930Z,5.8
2018-12-20T04:37:28.281Z,5.7
2018-12-20T04:42:27.859Z,5.7
2018-12-20T04:47:28.108Z,5.7
2018-12-20T04:52:28.714Z,5.7
2018-12-20T04:57:28.156Z,5.7
2018-12-20T05:02:27.873Z,5.6
2018-12-20T05:07:29.389Z,5.5
2018-12-20T05:12:28.283Z,5.5
2018-12-20T05:17:28.340Z,5.5
2018-12-20T05:22:28.247Z,5.4
2018-12-20T05:27:27.657Z,5.4
2018-12-20T05:32:28.548Z,5.4
2018-12-20T05:37:28.957Z,5.4
2018-12-20T05:42:28.101Z,5.4
2018-12-20T05:47:28.768Z,5.3
2018-12-20T05:52:26.776Z,5.3
2018-12-20T05:57:27.938Z,5.3
2018-12-20T06:02:27.730Z,5.3
2018-12-20T06:07:28.133Z,5.3
2018-12-20T06:12:27.322Z,5.3
2018-12-20T06:17:28.523Z,5.3
2018-12-20T06:22:27.705Z,5.4
2018-12-20T06:27:27.750Z,5.4
2018-12-20T06:32:28.554Z,5.5
2018-12-20T06:37:28.414Z,5.5
2018-12-20T06:42:28.826Z,5.6
2018-12-20T06:47:28.487Z,5.6
2018-12-20T06:52:28.030Z,5.6
2018-12-20T06:57:29.622Z,5.6
2018-12-20T07:02:28.214Z,5.6
2018-12-20T07:07:30.021Z,5.6
2018-12-20T07:12:28.047Z,5.6
2018-12-20T07:17:29.261Z,5.6
2018-12-20T07:22:27.567Z,5.6
2018-12-20T07:27:27.869Z,5.7
2018-12-20T07:32:29.073Z,5.7
2018-12-20T07:37:29.284Z,5.7
2018-12-20T07:42:28.082Z,5.7
2018-12-20T07:47:27.858Z,5.7
2018-12-20T07:52:28.146Z,5.7
2018-12-20T07:57:28.280Z,5.8
2018-12-20T08:02:28.205Z,5.9
2018-12-20T08:07:29.592Z,5.9
2018-12-20T08:12:28.601Z,6.0
2018-12-20T08:17:29.379Z,6.1
2018-12-20T08:22:29.015Z,6.1
2018-12-20T08:27:28.602Z,6.3
2018-12-20T08:32:28.620Z,6.3
2018-12-20T08:37:29.782Z,6.3
2018-12-20T08:42:28.713Z,6.5
2018-12-20T08:47:28.359Z,6.5
2018-12-20T08:52:29.020Z,6.6
2018-12-20T08:57:28.900Z,6.8
2018-12-20T09:02:28.284Z,7.0
2018-12-20T09:07:28.859Z,7.0
2018-12-20T09:12:28.738Z,7.1
2018-12-20T09:17:28.466Z,7.3
2018-12-20T09:22:28.019Z,7.8
2018-12-20T09:27:28.588Z,8.2
2018-12-20T09:32:30.195Z,8.5
2018-12-20T09:37:27.925Z,8.9
2018-12-20T09:42:28.714Z,8.8
2018-12-20T09:47:28.801Z,8.7
2018-12-20T09:52:28.520Z,8.5
2018-12-20T09:57:29.089Z,8.4
2018-12-20T10:02:27.724Z,8.4
2018-12-20T10:07:28.234Z,8.4
2018-12-20T10:12:27.902Z,8.3
2018-12-20T10:17:27.711Z,8.4
2018-12-20T10:22:28.613Z,8.4
2018-12-20T10:27:31.458Z,8.4
2018-12-20T10:32:28.439Z,8.4
2018-12-20T10:37:28.497Z,8.6
2018-12-20T10:42:29.773Z,8.7
2018-12-20T10:47:29.480Z,8.8
2018-12-20T10:52:28.569Z,8.7
2018-12-20T10:57:28.375Z,8.9
2018-12-20T11:02:29.244Z,8.7
2018-12-20T11:07:29.280Z,8.6
2018-12-20T11:12:28.329Z,8.6
2018-12-20T11:17:36.943Z,8.6
2018-12-20T11:22:28.004Z,8.5
2018-12-20T11:27:28.671Z,8.3
2018-12-20T11:32:28.408Z,8.3
2018-12-20T11:37:28.720Z,8.4
2018-12-20T11:42:27.881Z,8.4
2018-12-20T11:47:28.967Z,8.4
2018-12-20T11:52:28.972Z,8.4
2018-12-20T11:57:28.403Z,8.4
2018-12-20T12:02:28.052Z,8.4
2018-12-20T12:07:28.355Z,8.4
2018-12-20T12:12:29.007Z,8.4
2018-12-20T12:17:29.125Z,8.4
2018-12-20T12:22:28.068Z,8.3
2018-12-20T12:27:28.599Z,8.3
2018-12-20T12:32:29.077Z,8.3
2018-12-20T12:37:28.520Z,8.3
2018-12-20T12:42:28.459Z,8.4
2018-12-20T12:47:28.080Z,8.3
2018-12-20T12:52:29.943Z,8.3
2018-12-20T12:57:28.334Z,8.3
2018-12-20T13:02:27.760Z,8.4
2018-12-20T13:07:29.089Z,8.4
2018-12-20T13:12:28.929Z,8.4
2018-12-20T13:17:29.359Z,8.5
2018-12-20T13:22:28.172Z,8.6
2018-12-20T13:27:28.763Z,8.9
2018-12-20T13:32:28.949Z,9.5
2018-12-20T13:37:28.172Z,10.1
2018-12-20T13:42:28.039Z,10.5
2018-12-20T13:47:28.847Z,10.3
2018-12-20T13:52:28.245Z,10.0
2018-12-20T13:57:28.505Z,10.0
2018-12-20T14:02:28.342Z,10.3
2018-12-20T14:07:28.828Z,10.1
2018-12-20T14:12:27.986Z,9.7
2018-12-20T14:17:29.348Z,9.4
2018-12-20T14:22:27.547Z,9.2
2018-12-20T14:27:28.548Z,9.3
2018-12-20T14:32:28.719Z,8.9
2018-12-20T14:37:28.694Z,8.6
2018-12-20T14:42:29.383Z,8.4
2018-12-20T14:47:28.138Z,8.3
2018-12-20T14:52:28.315Z,8.3
2018-12-20T14:57:28.649Z,8.3
2018-12-20T15:02:28.481Z,8.2
2018-12-20T15:07:28.437Z,8.1
2018-12-20T15:12:28.008Z,8.0
2018-12-20T15:17:28.381Z,7.7
2018-12-20T15:22:27.995Z,7.7
2018-12-20T15:27:28.986Z,7.6
2018-12-20T15:32:28.323Z,7.6
2018-12-20T15:37:30.168Z,7.5
2018-12-20T15:42:28.267Z,7.4
2018-12-20T15:47:28.384Z,7.2
2018-12-20T15:52:28.401Z,7.2
2018-12-20T15:57:28.305Z,7.1
2018-12-20T16:02:28.218Z,6.9
2018-12-20T16:07:28.491Z,6.8
2018-12-20T16:12:28.712Z,6.8
2018-12-20T16:17:27.941Z,6.8
2018-12-20T16:22:27.783Z,6.8
2018-12-20T16:27:28.443Z,6.8
2018-12-20T16:32:28.201Z,6.7
2018-12-20T16:37:27.871Z,6.7
2018-12-20T16:42:28.360Z,6.7
2018-12-20T16:47:28.314Z,6.7
2018-12-20T16:52:28.328Z,6.7
2018-12-20T16:57:28.091Z,6.7
2018-12-20T17:02:27.462Z,6.7
2018-12-20T17:07:27.979Z,6.7
2018-12-20T17:12:28.634Z,6.7
2018-12-20T17:17:27.817Z,6.8
2018-12-20T17:22:28.394Z,6.8
2018-12-20T17:27:28.443Z,6.8
2018-12-20T17:32:28.875Z,6.8
2018-12-20T17:37:28.629Z,6.9
2018-12-20T17:42:27.592Z,6.9
2018-12-20T17:47:28.153Z,6.9
2018-12-20T17:52:29.706Z,7.0
2018-12-20T17:57:28.231Z,7.0
2018-12-20T18:02:29.645Z,7.0
2018-12-20T18:07:27.992Z,7.0
2018-12-20T18:12:28.356Z,7.0
2018-12-20T18:17:28.593Z,7.0
2018-12-20T18:22:28.267Z,7.0
2018-12-20T18:27:27.903Z,7.0
2018-12-20T18:32:27.772Z,7.1
2018-12-20T18:37:28.226Z,7.1
2018-12-20T18:42:28.071Z,7.2
2018-12-20T18:47:27.986Z,7.1
2018-12-20T18:52:27.769Z,7.1
2018-12-20T18:57:28.335Z,7.1
2018-12-20T19:02:29.075Z,7.1
2018-12-20T19:07:28.754Z,7.1
2018-12-20T19:12:28.181Z,7.1
2018-12-20T19:17:28.729Z,7.1
2018-12-20T19:22:28.004Z,7.1
2018-12-20T19:27:27.471Z,7.2
2018-12-20T19:32:27.951Z,7.2
2018-12-20T19:37:28.784Z,7.2
2018-12-20T19:42:28.354Z,7.1
2018-12-20T19:47:29.875Z,7.2
2018-12-20T19:52:28.523Z,7.2
2018-12-20T19:57:27.999Z,7.2
2018-12-20T20:02:27.462Z,7.2
2018-12-20T20:07:28.133Z,7.1
2018-12-20T20:12:27.870Z,7.1
2018-12-20T20:17:29.172Z,7.1
2018-12-20T20:22:27.501Z,7.0
2018-12-20T20:27:27.439Z,7.0
2018-12-20T20:32:28.839Z,7.0
2018-12-20T20:37:27.757Z,7.0
2018-12-20T20:42:28.321Z,7.0
2018-12-20T20:47:27.969Z,7.0
2018-12-20T20:52:27.603Z,7.0
2018-12-20T20:57:28.465Z,7.0
2018-12-20T21:02:28.176Z,7.0
2018-12-20T21:07:28.150Z,7.0
2018-12-20T21:12:27.265Z,6.9
2018-12-20T21:17:28.848Z,6.9
2018-12-20T21:22:28.043Z,6.8
2018-12-20T21:27:28.300Z,6.8
2018-12-20T21:32:28.267Z,6.7
2018-12-20T21:37:28.600Z,6.7
2018-12-20T21:42:28.143Z,6.7
2018-12-20T21:47:27.782Z,6.6
2018-12-20T21:52:29.383Z,6.6
2018-12-20T21:57:27.743Z,6.6
2018-12-20T22:02:28.106Z,6.6
2018-12-20T22:07:28.133Z,6.5
2018-12-20T22:12:28.083Z,6.5
2018-12-20T22:17:27.775Z,6.5
2018-12-20T22:22:28.391Z,6.5
2018-12-20T22:27:27.529Z,6.6
2018-12-20T22:32:27.586Z,6.6
2018-12-20T22:37:28.155Z,6.7
2018-12-20T22:42:27.885Z,6.8
2018-12-20T22:47:28.680Z,6.8
2018-12-20T22:52:28.990Z,6.7
2018-12-20T22:57:27.834Z,6.8
2018-12-20T23:02:29.072Z,6.8
2018-12-20T23:07:28.005Z,6.8
2018-12-20T23:12:27.923Z,6.8
2018-12-20T23:23:05.463Z,6.7
2018-12-20T23:28:04.527Z,6.7
2018-12-20T23:33:04.056Z,6.7
2018-12-20T23:38:04.423Z,6.7
2018-12-20T23:43:05.025Z,6.7
2018-12-20T23:48:04.452Z,6.7
2018-12-20T23:53:04.283Z,6.6
2018-12-20T23:58:04.229Z,6.6
